sensor_id;sensor_type;location;lat;lon;timestamp;P1;durP1;ratioP1;P2;durP2;ratioP2
57087;SDS011;42965;52.846;6.614;2022-11-20T00:01:23;28.00;;;19.98;;
57087;SDS011;42965;52.846;6.614;2022-11-20T00:03:52;32.83;;;19.67;;
57087;SDS011;42965;52.846;6.614;2022-11-20T00:06:19;30.90;;;20.35;;
57087;SDS011;42965;52.846;6.614;2022-11-20T00:08:46;29.00;;;19.77;;
57087;SDS011;42965;52.846;6.614;2022-11-20T00:11:14;27.67;;;19.80;;
57087;SDS011;42965;52.846;6.614;2022-11-20T00:13:43;26.20;;;17.92;;
57087;SDS011;42965;52.846;6.614;2022-11-20T00:16:11;26.83;;;18.27;;
57087;SDS011;42965;52.846;6.614;2022-11-20T00:18:39;25.50;;;18.52;;
57087;SDS011;42965;52.846;6.614;2022-11-20T00:21:06;25.05;;;18.75;;
57087;SDS011;42965;52.846;6.614;2022-11-20T00:23:36;29.33;;;19.38;;
57087;SDS011;42965;52.846;6.614;2022-11-20T00:26:03;26.23;;;18.98;;
57087;SDS011;42965;52.846;6.614;2022-11-20T00:28:31;24.25;;;18.63;;
57087;SDS011;42965;52.846;6.614;2022-11-20T00:31:15;25.55;;;19.23;;
57087;SDS011;42965;52.846;6.614;2022-11-20T00:33:42;24.55;;;16.58;;
57087;SDS011;42965;52.846;6.614;2022-11-20T00:36:11;26.55;;;17.58;;
57087;SDS011;42965;52.846;6.614;2022-11-20T00:38:52;24.98;;;17.77;;
57087;SDS011;42965;52.846;6.614;2022-11-20T00:41:20;24.23;;;15.38;;
57087;SDS011;42965;52.846;6.614;2022-11-20T00:43:47;24.27;;;16.77;;
57087;SDS011;42965;52.846;6.614;2022-11-20T00:46:15;25.25;;;17.50;;
57087;SDS011;42965;52.846;6.614;2022-11-20T00:48:43;20.92;;;16.05;;
57087;SDS011;42965;52.846;6.614;2022-11-20T00:51:11;20.70;;;15.93;;
57087;SDS011;42965;52.846;6.614;2022-11-20T00:53:40;22.58;;;15.85;;
57087;SDS011;42965;52.846;6.614;2022-11-20T00:56:08;19.83;;;14.13;;
57087;SDS011;42965;52.846;6.614;2022-11-20T00:58:37;24.23;;;16.25;;
57087;SDS011;42965;52.846;6.614;2022-11-20T01:01:10;21.15;;;15.80;;
57087;SDS011;42965;52.846;6.614;2022-11-20T01:03:39;22.67;;;16.70;;
57087;SDS011;42965;52.846;6.614;2022-11-20T01:06:13;23.23;;;15.60;;
57087;SDS011;42965;52.846;6.614;2022-11-20T01:08:47;24.13;;;16.55;;
57087;SDS011;42965;52.846;6.614;2022-11-20T01:11:19;24.42;;;16.02;;
57087;SDS011;42965;52.846;6.614;2022-11-20T01:13:49;21.75;;;15.50;;
57087;SDS011;42965;52.846;6.614;2022-11-20T01:16:19;21.48;;;15.40;;
57087;SDS011;42965;52.846;6.614;2022-11-20T01:18:46;22.88;;;14.55;;
57087;SDS011;42965;52.846;6.614;2022-11-20T01:21:21;23.10;;;15.65;;
57087;SDS011;42965;52.846;6.614;2022-11-20T01:23:50;20.77;;;15.18;;
57087;SDS011;42965;52.846;6.614;2022-11-20T01:26:17;18.63;;;14.02;;
57087;SDS011;42965;52.846;6.614;2022-11-20T01:28:49;21.98;;;15.18;;
57087;SDS011;42965;52.846;6.614;2022-11-20T01:31:17;19.63;;;14.52;;
57087;SDS011;42965;52.846;6.614;2022-11-20T01:33:52;23.08;;;15.45;;
57087;SDS011;42965;52.846;6.614;2022-11-20T01:36:21;20.73;;;15.15;;
57087;SDS011;42965;52.846;6.614;2022-11-20T01:38:52;21.58;;;15.02;;
57087;SDS011;42965;52.846;6.614;2022-11-20T01:41:20;25.30;;;15.07;;
57087;SDS011;42965;52.846;6.614;2022-11-20T01:44:06;24.27;;;16.42;;
57087;SDS011;42965;52.846;6.614;2022-11-20T01:46:35;29.25;;;19.55;;
57087;SDS011;42965;52.846;6.614;2022-11-20T01:49:04;23.85;;;15.90;;
57087;SDS011;42965;52.846;6.614;2022-11-20T01:51:42;20.95;;;14.38;;
57087;SDS011;42965;52.846;6.614;2022-11-20T01:54:18;19.70;;;13.63;;
57087;SDS011;42965;52.846;6.614;2022-11-20T01:56:49;20.02;;;13.32;;
57087;SDS011;42965;52.846;6.614;2022-11-20T02:01:48;22.40;;;14.70;;
57087;SDS011;42965;52.846;6.614;2022-11-20T02:04:14;20.58;;;14.20;;
57087;SDS011;42965;52.846;6.614;2022-11-20T02:06:44;19.02;;;13.38;;
57087;SDS011;42965;52.846;6.614;2022-11-20T02:09:16;19.40;;;14.45;;
57087;SDS011;42965;52.846;6.614;2022-11-20T02:11:43;20.88;;;13.48;;
57087;SDS011;42965;52.846;6.614;2022-11-20T02:14:12;20.50;;;14.10;;
57087;SDS011;42965;52.846;6.614;2022-11-20T02:16:40;19.48;;;14.38;;
57087;SDS011;42965;52.846;6.614;2022-11-20T02:19:30;18.42;;;13.13;;
57087;SDS011;42965;52.846;6.614;2022-11-20T02:22:07;18.65;;;13.45;;
57087;SDS011;42965;52.846;6.614;2022-11-20T02:24:53;18.58;;;13.15;;
57087;SDS011;42965;52.846;6.614;2022-11-20T02:27:19;18.95;;;14.18;;
57087;SDS011;42965;52.846;6.614;2022-11-20T02:29:51;19.05;;;13.60;;
57087;SDS011;42965;52.846;6.614;2022-11-20T02:32:20;16.77;;;12.43;;
57087;SDS011;42965;52.846;6.614;2022-11-20T02:34:50;17.02;;;12.82;;
57087;SDS011;42965;52.846;6.614;2022-11-20T02:37:17;18.90;;;13.80;;
57087;SDS011;42965;52.846;6.614;2022-11-20T02:39:45;19.67;;;12.35;;
57087;SDS011;42965;52.846;6.614;2022-11-20T02:42:13;18.77;;;13.93;;
57087;SDS011;42965;52.846;6.614;2022-11-20T02:44:43;18.20;;;12.98;;
57087;SDS011;42965;52.846;6.614;2022-11-20T02:47:10;16.90;;;13.68;;
57087;SDS011;42965;52.846;6.614;2022-11-20T02:49:36;20.63;;;14.32;;
57087;SDS011;42965;52.846;6.614;2022-11-20T02:52:06;21.25;;;15.02;;
57087;SDS011;42965;52.846;6.614;2022-11-20T02:54:32;22.35;;;15.07;;
57087;SDS011;42965;52.846;6.614;2022-11-20T02:56:58;21.48;;;13.40;;
57087;SDS011;42965;52.846;6.614;2022-11-20T02:59:25;17.73;;;12.48;;
57087;SDS011;42965;52.846;6.614;2022-11-20T03:01:51;15.95;;;13.05;;
57087;SDS011;42965;52.846;6.614;2022-11-20T03:04:17;19.00;;;12.65;;
57087;SDS011;42965;52.846;6.614;2022-11-20T03:06:43;18.48;;;12.50;;
57087;SDS011;42965;52.846;6.614;2022-11-20T03:09:10;16.67;;;12.77;;
57087;SDS011;42965;52.846;6.614;2022-11-20T03:11:37;16.38;;;12.85;;
57087;SDS011;42965;52.846;6.614;2022-11-20T03:14:03;18.08;;;13.00;;
57087;SDS011;42965;52.846;6.614;2022-11-20T03:16:31;16.85;;;12.18;;
57087;SDS011;42965;52.846;6.614;2022-11-20T03:18:58;18.17;;;12.60;;
57087;SDS011;42965;52.846;6.614;2022-11-20T03:21:25;19.13;;;13.85;;
57087;SDS011;42965;52.846;6.614;2022-11-20T03:23:52;17.27;;;12.77;;
57087;SDS011;42965;52.846;6.614;2022-11-20T03:26:20;20.05;;;14.00;;
57087;SDS011;42965;52.846;6.614;2022-11-20T03:28:49;17.70;;;12.82;;
57087;SDS011;42965;52.846;6.614;2022-11-20T03:31:21;19.58;;;13.98;;
57087;SDS011;42965;52.846;6.614;2022-11-20T03:34:02;17.65;;;13.50;;
57087;SDS011;42965;52.846;6.614;2022-11-20T03:36:29;18.45;;;13.63;;
57087;SDS011;42965;52.846;6.614;2022-11-20T03:38:56;17.52;;;13.45;;
57087;SDS011;42965;52.846;6.614;2022-11-20T03:41:24;18.05;;;14.00;;
57087;SDS011;42965;52.846;6.614;2022-11-20T03:43:59;19.00;;;14.60;;
57087;SDS011;42965;52.846;6.614;2022-11-20T03:46:27;20.60;;;14.02;;
57087;SDS011;42965;52.846;6.614;2022-11-20T03:48:54;20.02;;;14.05;;
57087;SDS011;42965;52.846;6.614;2022-11-20T03:51:25;19.35;;;13.90;;
57087;SDS011;42965;52.846;6.614;2022-11-20T03:54:01;18.58;;;14.20;;
57087;SDS011;42965;52.846;6.614;2022-11-20T03:56:30;20.73;;;12.95;;
57087;SDS011;42965;52.846;6.614;2022-11-20T03:58:58;18.90;;;12.88;;
57087;SDS011;42965;52.846;6.614;2022-11-20T04:01:25;17.75;;;13.40;;
57087;SDS011;42965;52.846;6.614;2022-11-20T04:03:54;18.20;;;13.07;;
57087;SDS011;42965;52.846;6.614;2022-11-20T04:06:33;19.08;;;14.45;;
57087;SDS011;42965;52.846;6.614;2022-11-20T04:09:02;20.85;;;15.35;;
57087;SDS011;42965;52.846;6.614;2022-11-20T04:11:29;18.30;;;13.48;;
57087;SDS011;42965;52.846;6.614;2022-11-20T04:13:58;20.65;;;14.93;;
57087;SDS011;42965;52.846;6.614;2022-11-20T04:16:26;20.23;;;14.23;;
57087;SDS011;42965;52.846;6.614;2022-11-20T04:18:57;18.83;;;13.63;;
57087;SDS011;42965;52.846;6.614;2022-11-20T04:21:25;20.23;;;15.15;;
57087;SDS011;42965;52.846;6.614;2022-11-20T04:23:53;18.27;;;12.98;;
57087;SDS011;42965;52.846;6.614;2022-11-20T04:26:20;19.83;;;13.43;;
57087;SDS011;42965;52.846;6.614;2022-11-20T04:28:48;17.98;;;13.13;;
57087;SDS011;42965;52.846;6.614;2022-11-20T04:31:19;18.42;;;12.85;;
57087;SDS011;42965;52.846;6.614;2022-11-20T04:33:47;21.23;;;13.38;;
57087;SDS011;42965;52.846;6.614;2022-11-20T04:36:17;20.40;;;15.20;;
57087;SDS011;42965;52.846;6.614;2022-11-20T04:38:51;18.05;;;13.13;;
57087;SDS011;42965;52.846;6.614;2022-11-20T04:41:20;20.65;;;14.65;;
57087;SDS011;42965;52.846;6.614;2022-11-20T04:43:48;18.33;;;12.65;;
57087;SDS011;42965;52.846;6.614;2022-11-20T04:46:16;20.35;;;14.10;;
57087;SDS011;42965;52.846;6.614;2022-11-20T04:48:43;21.80;;;13.85;;
57087;SDS011;42965;52.846;6.614;2022-11-20T04:51:10;19.20;;;14.13;;
57087;SDS011;42965;52.846;6.614;2022-11-20T04:53:36;16.88;;;12.68;;
57087;SDS011;42965;52.846;6.614;2022-11-20T04:56:05;18.92;;;13.13;;
57087;SDS011;42965;52.846;6.614;2022-11-20T04:58:33;18.02;;;13.38;;
57087;SDS011;42965;52.846;6.614;2022-11-20T05:03:29;17.40;;;13.43;;
57087;SDS011;42965;52.846;6.614;2022-11-20T05:05:55;20.35;;;14.65;;
57087;SDS011;42965;52.846;6.614;2022-11-20T05:08:22;17.80;;;12.63;;
57087;SDS011;42965;52.846;6.614;2022-11-20T05:10:48;19.15;;;13.65;;
57087;SDS011;42965;52.846;6.614;2022-11-20T05:13:15;16.17;;;13.07;;
57087;SDS011;42965;52.846;6.614;2022-11-20T05:15:41;17.77;;;13.63;;
57087;SDS011;42965;52.846;6.614;2022-11-20T05:18:07;16.48;;;12.90;;
57087;SDS011;42965;52.846;6.614;2022-11-20T05:20:33;19.27;;;14.35;;
57087;SDS011;42965;52.846;6.614;2022-11-20T05:23:01;19.48;;;14.10;;
57087;SDS011;42965;52.846;6.614;2022-11-20T05:25:28;17.80;;;13.23;;
57087;SDS011;42965;52.846;6.614;2022-11-20T05:27:54;16.33;;;12.32;;
57087;SDS011;42965;52.846;6.614;2022-11-20T05:30:20;17.60;;;13.10;;
57087;SDS011;42965;52.846;6.614;2022-11-20T05:32:46;18.08;;;12.40;;
57087;SDS011;42965;52.846;6.614;2022-11-20T05:35:13;16.90;;;12.80;;
57087;SDS011;42965;52.846;6.614;2022-11-20T05:37:42;18.73;;;13.15;;
57087;SDS011;42965;52.846;6.614;2022-11-20T05:40:08;18.52;;;12.98;;
57087;SDS011;42965;52.846;6.614;2022-11-20T05:42:35;17.48;;;13.45;;
57087;SDS011;42965;52.846;6.614;2022-11-20T05:45:02;18.63;;;13.38;;
57087;SDS011;42965;52.846;6.614;2022-11-20T05:47:33;16.98;;;11.77;;
57087;SDS011;42965;52.846;6.614;2022-11-20T05:50:00;17.58;;;12.52;;
57087;SDS011;42965;52.846;6.614;2022-11-20T05:52:30;16.30;;;12.13;;
57087;SDS011;42965;52.846;6.614;2022-11-20T05:54:56;15.25;;;11.40;;
57087;SDS011;42965;52.846;6.614;2022-11-20T05:57:23;16.50;;;12.10;;
57087;SDS011;42965;52.846;6.614;2022-11-20T05:59:50;15.73;;;11.18;;
57087;SDS011;42965;52.846;6.614;2022-11-20T06:02:16;16.98;;;12.65;;
57087;SDS011;42965;52.846;6.614;2022-11-20T06:04:43;15.70;;;11.35;;
57087;SDS011;42965;52.846;6.614;2022-11-20T06:07:09;17.00;;;11.88;;
57087;SDS011;42965;52.846;6.614;2022-11-20T06:09:36;15.93;;;11.23;;
57087;SDS011;42965;52.846;6.614;2022-11-20T06:12:02;15.52;;;11.85;;
57087;SDS011;42965;52.846;6.614;2022-11-20T06:14:29;14.45;;;11.15;;
57087;SDS011;42965;52.846;6.614;2022-11-20T06:16:55;18.40;;;12.30;;
57087;SDS011;42965;52.846;6.614;2022-11-20T06:19:21;14.82;;;11.07;;
57087;SDS011;42965;52.846;6.614;2022-11-20T06:21:48;19.20;;;12.18;;
57087;SDS011;42965;52.846;6.614;2022-11-20T06:24:15;16.60;;;11.60;;
57087;SDS011;42965;52.846;6.614;2022-11-20T06:26:41;18.25;;;13.20;;
57087;SDS011;42965;52.846;6.614;2022-11-20T06:29:08;16.60;;;10.93;;
57087;SDS011;42965;52.846;6.614;2022-11-20T06:31:35;14.43;;;11.23;;
57087;SDS011;42965;52.846;6.614;2022-11-20T06:34:06;16.17;;;12.10;;
57087;SDS011;42965;52.846;6.614;2022-11-20T06:36:33;16.88;;;11.52;;
57087;SDS011;42965;52.846;6.614;2022-11-20T06:38:59;16.80;;;12.35;;
57087;SDS011;42965;52.846;6.614;2022-11-20T06:41:27;16.25;;;12.07;;
57087;SDS011;42965;52.846;6.614;2022-11-20T06:43:53;16.63;;;12.60;;
57087;SDS011;42965;52.846;6.614;2022-11-20T06:46:20;16.85;;;12.55;;
57087;SDS011;42965;52.846;6.614;2022-11-20T06:48:47;16.48;;;11.50;;
57087;SDS011;42965;52.846;6.614;2022-11-20T06:51:14;16.70;;;11.80;;
57087;SDS011;42965;52.846;6.614;2022-11-20T06:53:41;16.73;;;12.57;;
57087;SDS011;42965;52.846;6.614;2022-11-20T06:56:07;19.23;;;12.80;;
57087;SDS011;42965;52.846;6.614;2022-11-20T06:58:35;16.90;;;11.40;;
57087;SDS011;42965;52.846;6.614;2022-11-20T07:01:03;17.80;;;12.30;;
57087;SDS011;42965;52.846;6.614;2022-11-20T07:03:31;16.08;;;11.88;;
57087;SDS011;42965;52.846;6.614;2022-11-20T07:05:58;17.38;;;12.40;;
57087;SDS011;42965;52.846;6.614;2022-11-20T07:08:25;18.52;;;12.73;;
57087;SDS011;42965;52.846;6.614;2022-11-20T07:10:51;17.98;;;11.38;;
57087;SDS011;42965;52.846;6.614;2022-11-20T07:13:18;16.92;;;12.30;;
57087;SDS011;42965;52.846;6.614;2022-11-20T07:15:44;16.63;;;12.40;;
57087;SDS011;42965;52.846;6.614;2022-11-20T07:18:10;17.90;;;12.02;;
57087;SDS011;42965;52.846;6.614;2022-11-20T07:20:36;16.40;;;12.55;;
57087;SDS011;42965;52.846;6.614;2022-11-20T07:23:03;16.45;;;11.77;;
57087;SDS011;42965;52.846;6.614;2022-11-20T07:25:29;17.20;;;12.25;;
57087;SDS011;42965;52.846;6.614;2022-11-20T07:27:59;17.92;;;11.57;;
57087;SDS011;42965;52.846;6.614;2022-11-20T07:30:26;15.90;;;11.60;;
57087;SDS011;42965;52.846;6.614;2022-11-20T07:32:54;17.30;;;12.15;;
57087;SDS011;42965;52.846;6.614;2022-11-20T07:35:21;19.45;;;13.38;;
57087;SDS011;42965;52.846;6.614;2022-11-20T07:37:48;14.75;;;11.32;;
57087;SDS011;42965;52.846;6.614;2022-11-20T07:40:15;15.63;;;11.43;;
57087;SDS011;42965;52.846;6.614;2022-11-20T07:42:52;16.15;;;11.63;;
57087;SDS011;42965;52.846;6.614;2022-11-20T07:45:20;18.17;;;11.88;;
57087;SDS011;42965;52.846;6.614;2022-11-20T07:47:47;14.77;;;11.85;;
57087;SDS011;42965;52.846;6.614;2022-11-20T07:50:13;15.75;;;12.77;;
57087;SDS011;42965;52.846;6.614;2022-11-20T07:52:40;18.05;;;12.77;;
57087;SDS011;42965;52.846;6.614;2022-11-20T07:55:08;17.27;;;11.50;;
57087;SDS011;42965;52.846;6.614;2022-11-20T07:57:35;16.58;;;11.95;;
57087;SDS011;42965;52.846;6.614;2022-11-20T08:00:03;15.27;;;11.35;;
57087;SDS011;42965;52.846;6.614;2022-11-20T08:06:26;15.93;;;11.50;;
57087;SDS011;42965;52.846;6.614;2022-11-20T08:08:52;21.27;;;13.30;;
57087;SDS011;42965;52.846;6.614;2022-11-20T08:11:19;17.45;;;12.27;;
57087;SDS011;42965;52.846;6.614;2022-11-20T08:14:04;19.33;;;12.38;;
57087;SDS011;42965;52.846;6.614;2022-11-20T08:16:44;16.40;;;11.75;;
57087;SDS011;42965;52.846;6.614;2022-11-20T08:19:13;16.42;;;11.85;;
57087;SDS011;42965;52.846;6.614;2022-11-20T08:24:13;15.75;;;11.65;;
57087;SDS011;42965;52.846;6.614;2022-11-20T08:26:41;16.00;;;10.52;;
57087;SDS011;42965;52.846;6.614;2022-11-20T08:29:07;15.73;;;11.55;;
57087;SDS011;42965;52.846;6.614;2022-11-20T08:31:34;18.33;;;11.70;;
57087;SDS011;42965;52.846;6.614;2022-11-20T08:34:01;15.15;;;11.90;;
57087;SDS011;42965;52.846;6.614;2022-11-20T08:36:28;17.40;;;11.52;;
57087;SDS011;42965;52.846;6.614;2022-11-20T08:38:54;17.95;;;12.43;;
57087;SDS011;42965;52.846;6.614;2022-11-20T08:41:21;14.55;;;11.13;;
57087;SDS011;42965;52.846;6.614;2022-11-20T08:43:50;14.88;;;10.52;;
57087;SDS011;42965;52.846;6.614;2022-11-20T08:46:18;12.68;;;10.07;;
57087;SDS011;42965;52.846;6.614;2022-11-20T08:48:45;13.48;;;10.23;;
57087;SDS011;42965;52.846;6.614;2022-11-20T08:51:13;14.90;;;10.45;;
57087;SDS011;42965;52.846;6.614;2022-11-20T08:53:47;14.85;;;10.45;;
57087;SDS011;42965;52.846;6.614;2022-11-20T08:56:16;13.15;;;9.98;;
57087;SDS011;42965;52.846;6.614;2022-11-20T08:58:43;13.57;;;10.07;;
57087;SDS011;42965;52.846;6.614;2022-11-20T09:01:14;13.23;;;10.13;;
57087;SDS011;42965;52.846;6.614;2022-11-20T09:03:42;13.43;;;10.50;;
57087;SDS011;42965;52.846;6.614;2022-11-20T09:06:09;12.57;;;9.00;;
57087;SDS011;42965;52.846;6.614;2022-11-20T09:08:35;11.85;;;9.55;;
57087;SDS011;42965;52.846;6.614;2022-11-20T09:11:02;13.98;;;10.70;;
57087;SDS011;42965;52.846;6.614;2022-11-20T09:13:30;13.80;;;10.55;;
57087;SDS011;42965;52.846;6.614;2022-11-20T09:15:58;17.58;;;10.77;;
57087;SDS011;42965;52.846;6.614;2022-11-20T09:18:36;12.25;;;8.95;;
57087;SDS011;42965;52.846;6.614;2022-11-20T09:21:05;15.20;;;9.77;;
57087;SDS011;42965;52.846;6.614;2022-11-20T09:23:46;13.10;;;9.43;;
57087;SDS011;42965;52.846;6.614;2022-11-20T09:26:13;14.48;;;11.00;;
57087;SDS011;42965;52.846;6.614;2022-11-20T09:28:41;14.63;;;10.07;;
57087;SDS011;42965;52.846;6.614;2022-11-20T09:31:08;13.45;;;9.70;;
57087;SDS011;42965;52.846;6.614;2022-11-20T09:33:44;11.68;;;9.48;;
57087;SDS011;42965;52.846;6.614;2022-11-20T09:36:11;11.88;;;9.60;;
57087;SDS011;42965;52.846;6.614;2022-11-20T09:38:38;11.20;;;9.60;;
57087;SDS011;42965;52.846;6.614;2022-11-20T09:41:05;12.70;;;9.40;;
57087;SDS011;42965;52.846;6.614;2022-11-20T09:48:58;12.43;;;9.32;;
57087;SDS011;42965;52.846;6.614;2022-11-20T09:54:22;10.88;;;9.60;;
57087;SDS011;42965;52.846;6.614;2022-11-20T09:56:59;12.63;;;10.23;;
57087;SDS011;42965;52.846;6.614;2022-11-20T09:59:34;13.50;;;10.35;;
57087;SDS011;42965;52.846;6.614;2022-11-20T10:04:52;13.38;;;10.43;;
57087;SDS011;42965;52.846;6.614;2022-11-20T10:10:35;12.68;;;9.48;;
57087;SDS011;42965;52.846;6.614;2022-11-20T10:16:39;9.80;;;7.63;;
57087;SDS011;42965;52.846;6.614;2022-11-20T10:24:53;9.82;;;8.80;;
57087;SDS011;42965;52.846;6.614;2022-11-20T10:30:12;12.10;;;9.40;;
57087;SDS011;42965;52.846;6.614;2022-11-20T10:32:46;11.02;;;9.38;;
57087;SDS011;42965;52.846;6.614;2022-11-20T10:38:10;11.15;;;8.98;;
57087;SDS011;42965;52.846;6.614;2022-11-20T10:40:44;11.25;;;9.50;;
57087;SDS011;42965;52.846;6.614;2022-11-20T10:43:19;11.02;;;8.77;;
57087;SDS011;42965;52.846;6.614;2022-11-20T10:48:37;11.38;;;8.60;;
57087;SDS011;42965;52.846;6.614;2022-11-20T10:56:47;9.93;;;7.97;;
57087;SDS011;42965;52.846;6.614;2022-11-20T11:02:18;11.48;;;8.35;;
57087;SDS011;42965;52.846;6.614;2022-11-20T11:04:53;11.05;;;8.02;;
57087;SDS011;42965;52.846;6.614;2022-11-20T11:07:21;9.88;;;8.35;;
57087;SDS011;42965;52.846;6.614;2022-11-20T11:09:53;9.55;;;8.02;;
57087;SDS011;42965;52.846;6.614;2022-11-20T11:12:21;11.02;;;8.02;;
57087;SDS011;42965;52.846;6.614;2022-11-20T11:14:50;10.55;;;8.13;;
57087;SDS011;42965;52.846;6.614;2022-11-20T11:17:31;10.93;;;8.98;;
57087;SDS011;42965;52.846;6.614;2022-11-20T11:22:28;9.52;;;7.25;;
57087;SDS011;42965;52.846;6.614;2022-11-20T11:24:56;9.52;;;7.15;;
57087;SDS011;42965;52.846;6.614;2022-11-20T11:27:22;11.52;;;7.65;;
57087;SDS011;42965;52.846;6.614;2022-11-20T11:29:49;8.80;;;7.32;;
57087;SDS011;42965;52.846;6.614;2022-11-20T11:32:18;8.93;;;6.78;;
57087;SDS011;42965;52.846;6.614;2022-11-20T11:37:34;9.90;;;7.35;;
57087;SDS011;42965;52.846;6.614;2022-11-20T11:40:03;9.00;;;7.47;;
57087;SDS011;42965;52.846;6.614;2022-11-20T11:42:30;9.23;;;7.93;;
57087;SDS011;42965;52.846;6.614;2022-11-20T11:44:58;8.95;;;8.05;;
57087;SDS011;42965;52.846;6.614;2022-11-20T11:47:32;7.68;;;6.60;;
57087;SDS011;42965;52.846;6.614;2022-11-20T11:55:07;7.68;;;6.47;;
57087;SDS011;42965;52.846;6.614;2022-11-20T12:00:13;6.93;;;5.75;;
57087;SDS011;42965;52.846;6.614;2022-11-20T12:05:30;7.00;;;5.45;;
57087;SDS011;42965;52.846;6.614;2022-11-20T12:08:20;7.55;;;6.18;;
57087;SDS011;42965;52.846;6.614;2022-11-20T12:11:06;8.07;;;6.00;;
57087;SDS011;42965;52.846;6.614;2022-11-20T12:14:04;7.80;;;5.57;;
57087;SDS011;42965;52.846;6.614;2022-11-20T12:16:40;6.57;;;5.65;;
57087;SDS011;42965;52.846;6.614;2022-11-20T12:19:08;6.47;;;5.47;;
57087;SDS011;42965;52.846;6.614;2022-11-20T12:24:32;8.02;;;6.03;;
57087;SDS011;42965;52.846;6.614;2022-11-20T12:29:53;7.65;;;6.60;;
57087;SDS011;42965;52.846;6.614;2022-11-20T12:43:31;7.15;;;6.03;;
57087;SDS011;42965;52.846;6.614;2022-11-20T13:00:17;9.43;;;7.53;;
57087;SDS011;42965;52.846;6.614;2022-11-20T13:05:21;8.27;;;6.78;;
57087;SDS011;42965;52.846;6.614;2022-11-20T13:07:54;7.97;;;6.53;;
57087;SDS011;42965;52.846;6.614;2022-11-20T13:13:28;10.13;;;6.97;;
57087;SDS011;42965;52.846;6.614;2022-11-20T13:16:17;11.13;;;7.55;;
57087;SDS011;42965;52.846;6.614;2022-11-20T13:18:51;10.65;;;8.73;;
57087;SDS011;42965;52.846;6.614;2022-11-20T13:21:22;10.70;;;7.43;;
57087;SDS011;42965;52.846;6.614;2022-11-20T13:24:05;9.40;;;7.47;;
57087;SDS011;42965;52.846;6.614;2022-11-20T13:26:32;10.40;;;8.40;;
57087;SDS011;42965;52.846;6.614;2022-11-20T13:29:02;10.13;;;8.25;;
57087;SDS011;42965;52.846;6.614;2022-11-20T13:31:45;9.85;;;7.97;;
57087;SDS011;42965;52.846;6.614;2022-11-20T13:34:22;13.05;;;9.60;;
57087;SDS011;42965;52.846;6.614;2022-11-20T13:36:55;12.07;;;8.38;;
57087;SDS011;42965;52.846;6.614;2022-11-20T13:41:56;11.85;;;8.65;;
57087;SDS011;42965;52.846;6.614;2022-11-20T13:44:34;11.15;;;9.18;;
57087;SDS011;42965;52.846;6.614;2022-11-20T13:47:17;11.43;;;9.05;;
57087;SDS011;42965;52.846;6.614;2022-11-20T13:49:51;11.68;;;8.77;;
57087;SDS011;42965;52.846;6.614;2022-11-20T13:55:11;11.18;;;8.52;;
57087;SDS011;42965;52.846;6.614;2022-11-20T14:00:33;10.52;;;8.70;;
57087;SDS011;42965;52.846;6.614;2022-11-20T14:05:34;13.27;;;10.55;;
57087;SDS011;42965;52.846;6.614;2022-11-20T14:08:03;12.73;;;9.25;;
57087;SDS011;42965;52.846;6.614;2022-11-20T14:10:32;11.40;;;8.70;;
57087;SDS011;42965;52.846;6.614;2022-11-20T14:12:58;11.75;;;8.77;;
57087;SDS011;42965;52.846;6.614;2022-11-20T14:15:36;12.80;;;9.70;;
57087;SDS011;42965;52.846;6.614;2022-11-20T14:18:13;11.10;;;8.90;;
57087;SDS011;42965;52.846;6.614;2022-11-20T14:20:49;12.98;;;9.05;;
57087;SDS011;42965;52.846;6.614;2022-11-20T14:23:23;13.25;;;9.80;;
57087;SDS011;42965;52.846;6.614;2022-11-20T14:25:54;11.98;;;9.63;;
57087;SDS011;42965;52.846;6.614;2022-11-20T14:28:24;13.18;;;9.32;;
57087;SDS011;42965;52.846;6.614;2022-11-20T14:30:53;12.90;;;9.75;;
57087;SDS011;42965;52.846;6.614;2022-11-20T14:33:20;11.88;;;9.73;;
57087;SDS011;42965;52.846;6.614;2022-11-20T14:35:54;12.82;;;9.80;;
57087;SDS011;42965;52.846;6.614;2022-11-20T14:38:24;12.98;;;9.65;;
57087;SDS011;42965;52.846;6.614;2022-11-20T14:40:52;11.93;;;9.23;;
57087;SDS011;42965;52.846;6.614;2022-11-20T14:43:20;13.82;;;10.07;;
57087;SDS011;42965;52.846;6.614;2022-11-20T14:45:55;11.57;;;9.23;;
57087;SDS011;42965;52.846;6.614;2022-11-20T14:48:24;13.63;;;10.88;;
57087;SDS011;42965;52.846;6.614;2022-11-20T14:51:02;13.02;;;10.20;;
57087;SDS011;42965;52.846;6.614;2022-11-20T14:53:29;13.43;;;9.73;;
57087;SDS011;42965;52.846;6.614;2022-11-20T14:55:56;12.73;;;9.85;;
57087;SDS011;42965;52.846;6.614;2022-11-20T14:58:25;13.57;;;10.35;;
57087;SDS011;42965;52.846;6.614;2022-11-20T15:00:54;15.90;;;10.88;;
57087;SDS011;42965;52.846;6.614;2022-11-20T15:03:22;13.73;;;10.50;;
57087;SDS011;42965;52.846;6.614;2022-11-20T15:05:50;14.23;;;11.23;;
57087;SDS011;42965;52.846;6.614;2022-11-20T15:08:16;16.50;;;12.27;;
57087;SDS011;42965;52.846;6.614;2022-11-20T15:10:50;17.02;;;13.35;;
57087;SDS011;42965;52.846;6.614;2022-11-20T15:13:29;17.20;;;13.30;;
57087;SDS011;42965;52.846;6.614;2022-11-20T15:16:02;16.98;;;12.27;;
57087;SDS011;42965;52.846;6.614;2022-11-20T15:18:36;15.82;;;12.13;;
57087;SDS011;42965;52.846;6.614;2022-11-20T15:21:09;18.25;;;12.27;;
57087;SDS011;42965;52.846;6.614;2022-11-20T15:23:41;15.93;;;12.68;;
57087;SDS011;42965;52.846;6.614;2022-11-20T15:26:08;17.55;;;13.65;;
57087;SDS011;42965;52.846;6.614;2022-11-20T15:28:39;15.57;;;12.73;;
57087;SDS011;42965;52.846;6.614;2022-11-20T15:31:14;16.13;;;13.13;;
57087;SDS011;42965;52.846;6.614;2022-11-20T15:33:43;16.13;;;11.68;;
57087;SDS011;42965;52.846;6.614;2022-11-20T15:36:10;16.85;;;13.52;;
57087;SDS011;42965;52.846;6.614;2022-11-20T15:38:36;15.35;;;12.20;;
57087;SDS011;42965;52.846;6.614;2022-11-20T15:41:03;18.20;;;13.43;;
57087;SDS011;42965;52.846;6.614;2022-11-20T15:43:29;18.85;;;13.75;;
57087;SDS011;42965;52.846;6.614;2022-11-20T15:45:59;17.08;;;12.50;;
57087;SDS011;42965;52.846;6.614;2022-11-20T15:48:29;16.25;;;13.48;;
57087;SDS011;42965;52.846;6.614;2022-11-20T15:53:38;17.95;;;13.63;;
57087;SDS011;42965;52.846;6.614;2022-11-20T15:56:06;16.52;;;12.40;;
57087;SDS011;42965;52.846;6.614;2022-11-20T15:58:37;15.48;;;12.45;;
57087;SDS011;42965;52.846;6.614;2022-11-20T16:01:04;12.98;;;9.25;;
57087;SDS011;42965;52.846;6.614;2022-11-20T16:03:31;17.75;;;13.48;;
57087;SDS011;42965;52.846;6.614;2022-11-20T16:05:58;18.38;;;13.27;;
57087;SDS011;42965;52.846;6.614;2022-11-20T16:08:28;17.73;;;13.82;;
57087;SDS011;42965;52.846;6.614;2022-11-20T16:10:54;15.20;;;12.02;;
57087;SDS011;42965;52.846;6.614;2022-11-20T16:13:21;17.15;;;13.45;;
57087;SDS011;42965;52.846;6.614;2022-11-20T16:16:26;16.73;;;13.50;;
57087;SDS011;42965;52.846;6.614;2022-11-20T16:19:03;16.98;;;13.38;;
57087;SDS011;42965;52.846;6.614;2022-11-20T16:21:30;15.85;;;12.63;;
57087;SDS011;42965;52.846;6.614;2022-11-20T16:23:57;19.13;;;14.45;;
57087;SDS011;42965;52.846;6.614;2022-11-20T16:26:24;18.10;;;13.90;;
57087;SDS011;42965;52.846;6.614;2022-11-20T16:28:50;17.15;;;13.10;;
57087;SDS011;42965;52.846;6.614;2022-11-20T16:31:17;19.80;;;14.82;;
57087;SDS011;42965;52.846;6.614;2022-11-20T16:33:51;27.48;;;19.27;;
57087;SDS011;42965;52.846;6.614;2022-11-20T16:36:20;19.42;;;16.10;;
57087;SDS011;42965;52.846;6.614;2022-11-20T16:38:51;19.73;;;13.75;;